createdAt,value
2019-01-08T00:00:26.693Z,26.07
2019-01-08T00:05:22.300Z,26.90
2019-01-08T00:10:17.969Z,26.33
2019-01-08T00:15:13.549Z,26.93
2019-01-08T00:20:09.201Z,27.77
2019-01-08T00:25:05.721Z,26.90
2019-01-08T00:30:01.389Z,26.30
2019-01-08T00:34:57.049Z,26.10
2019-01-08T00:39:52.637Z,26.73
2019-01-08T00:44:48.278Z,27.20
2019-01-08T00:49:43.872Z,27.33
2019-01-08T00:54:39.450Z,25.27
2019-01-08T00:59:36.833Z,25.13
2019-01-08T01:04:32.493Z,28.17
2019-01-08T01:09:28.079Z,26.23
2019-01-08T01:14:23.657Z,25.50
2019-01-08T01:19:19.254Z,25.40
2019-01-08T01:24:14.911Z,26.27
2019-01-08T01:29:10.513Z,26.57
2019-01-08T01:34:06.089Z,24.90
2019-01-08T01:39:01.678Z,26.10
2019-01-08T01:43:57.337Z,27.53
2019-01-08T01:48:52.928Z,28.40
2019-01-08T01:53:48.598Z,28.07
2019-01-08T01:58:44.246Z,29.17
2019-01-08T02:03:39.941Z,28.83
2019-01-08T02:08:35.603Z,29.83
2019-01-08T02:13:31.289Z,28.23
2019-01-08T02:18:26.860Z,27.33
2019-01-08T02:23:22.521Z,27.10
2019-01-08T02:28:18.111Z,26.60
2019-01-08T02:33:14.726Z,27.23
2019-01-08T02:38:10.317Z,27.40
2019-01-08T02:43:06.022Z,25.80
2019-01-08T02:48:01.636Z,26.67
2019-01-08T02:52:57.206Z,24.83
2019-01-08T02:57:52.783Z,26.17
2019-01-08T03:02:48.361Z,25.80
2019-01-08T03:07:44.065Z,25.83
2019-01-08T03:12:39.666Z,25.10
2019-01-08T03:17:35.344Z,25.40
2019-01-08T03:22:30.950Z,25.17
2019-01-08T03:27:26.637Z,25.63
2019-01-08T03:32:22.319Z,26.63
2019-01-08T03:37:17.992Z,24.17
2019-01-08T03:42:13.559Z,24.93
2019-01-08T03:47:09.210Z,25.20
2019-01-08T03:52:04.856Z,25.50
2019-01-08T03:57:00.608Z,25.13
2019-01-08T04:01:56.269Z,23.30
2019-01-08T04:06:51.864Z,23.77
2019-01-08T04:11:47.458Z,23.77
2019-01-08T04:16:43.061Z,27.23
2019-01-08T04:21:38.733Z,27.00
2019-01-08T04:26:34.613Z,28.03
2019-01-08T04:31:30.313Z,26.57
2019-01-08T04:36:25.917Z,25.30
2019-01-08T04:41:21.492Z,24.83
2019-01-08T04:46:20.083Z,25.90
2019-01-08T04:51:15.657Z,24.97
2019-01-08T04:56:11.397Z,25.73
2019-01-08T05:01:06.985Z,25.43
2019-01-08T05:06:03.349Z,26.40
2019-01-08T05:10:59.009Z,27.73
2019-01-08T05:15:54.617Z,26.30
2019-01-08T05:20:50.565Z,25.73
2019-01-08T05:25:46.778Z,26.10
2019-01-08T05:30:42.445Z,25.80
2019-01-08T05:35:38.093Z,24.93
2019-01-08T05:40:33.695Z,27.10
2019-01-08T05:45:29.308Z,25.00
2019-01-08T05:50:24.930Z,28.83
2019-01-08T05:55:20.581Z,25.83
2019-01-08T06:00:16.794Z,25.67
2019-01-08T06:05:12.638Z,26.37
2019-01-08T06:10:09.438Z,25.00
2019-01-08T06:15:05.274Z,26.63
2019-01-08T06:20:00.879Z,25.17
2019-01-08T06:24:56.533Z,24.30
2019-01-08T06:29:52.197Z,24.10
2019-01-08T06:34:47.836Z,25.43
2019-01-08T06:39:43.513Z,25.00
2019-01-08T06:44:39.170Z,24.70
2019-01-08T06:49:34.778Z,26.43
2019-01-08T06:54:30.369Z,28.33
2019-01-08T06:59:25.963Z,50.60
2019-01-08T07:04:22.641Z,35.60
2019-01-08T07:09:18.237Z,26.37
2019-01-08T07:14:13.905Z,36.33
2019-01-08T07:19:09.596Z,26.80
2019-01-08T07:24:05.194Z,23.63
2019-01-08T07:29:00.809Z,24.10
2019-01-08T07:33:56.493Z,24.47
2019-01-08T07:38:52.185Z,27.87
2019-01-08T07:43:47.876Z,27.77
2019-01-08T07:48:43.479Z,28.13
2019-01-08T07:53:42.370Z,27.33
2019-01-08T07:58:38.063Z,24.77
2019-01-08T08:03:33.757Z,25.03
2019-01-08T08:08:30.416Z,23.90
2019-01-08T08:13:27.244Z,23.50
2019-01-08T08:18:24.174Z,23.63
2019-01-08T08:23:20.542Z,20.90
2019-01-08T08:28:17.037Z,22.03
2019-01-08T08:33:14.074Z,25.83
2019-01-08T08:38:10.466Z,21.10
2019-01-08T08:43:06.137Z,21.20
2019-01-08T08:48:01.825Z,20.80
2019-01-08T08:52:57.433Z,20.33
2019-01-08T08:57:53.101Z,20.33
2019-01-08T09:02:48.845Z,19.07
2019-01-08T09:07:44.437Z,19.30
2019-01-08T09:12:40.158Z,21.50
2019-01-08T09:17:35.854Z,21.93
2019-01-08T09:22:31.466Z,20.23
2019-01-08T09:27:27.050Z,21.83
2019-01-08T09:32:22.651Z,20.13
2019-01-08T09:37:18.296Z,20.47
2019-01-08T09:42:13.852Z,21.00
2019-01-08T09:47:09.526Z,22.57
2019-01-08T09:52:05.189Z,21.23
2019-01-08T09:57:00.789Z,21.60
2019-01-08T10:01:56.449Z,21.50
2019-01-08T10:06:52.107Z,21.70
2019-01-08T10:11:47.777Z,20.50
2019-01-08T10:16:43.377Z,19.70
2019-01-08T10:21:38.990Z,21.73
2019-01-08T10:26:34.726Z,21.80
2019-01-08T10:31:32.517Z,22.07
2019-01-08T10:36:27.752Z,22.33
2019-01-08T10:41:23.405Z,22.37
2019-01-08T10:46:18.998Z,22.37
2019-01-08T10:51:14.606Z,22.87
2019-01-08T10:56:10.242Z,21.80
2019-01-08T11:01:06.110Z,20.90
2019-01-08T11:06:02.704Z,21.13
2019-01-08T11:10:59.275Z,20.30
2019-01-08T11:15:54.950Z,21.13
2019-01-08T11:20:50.640Z,17.70
2019-01-08T11:25:46.850Z,17.27
2019-01-08T11:30:42.490Z,18.67
2019-01-08T11:35:42.175Z,20.00
2019-01-08T11:40:35.753Z,19.60
2019-01-08T11:45:31.370Z,20.00
2019-01-08T11:50:28.179Z,17.57
2019-01-08T11:55:23.854Z,18.27
2019-01-08T12:00:19.634Z,14.50
2019-01-08T12:05:15.290Z,14.87
2019-01-08T12:10:10.989Z,14.20
2019-01-08T12:15:07.261Z,14.60
2019-01-08T12:20:03.657Z,15.00
2019-01-08T12:24:59.461Z,13.87
2019-01-08T12:29:55.163Z,13.63
2019-01-08T12:34:50.833Z,13.10
2019-01-08T12:39:46.509Z,13.30
2019-01-08T12:44:42.130Z,15.83
2019-01-08T12:49:38.707Z,13.90
2019-01-08T12:54:34.422Z,11.83
2019-01-08T12:59:30.030Z,11.93
2019-01-08T13:04:25.704Z,11.93
2019-01-08T13:09:21.365Z,10.47
2019-01-08T13:14:17.026Z,12.00
2019-01-08T13:19:12.633Z,10.53
2019-01-08T13:24:08.331Z,11.17
2019-01-08T13:29:03.962Z,14.20
2019-01-08T13:33:59.821Z,14.20
2019-01-08T13:38:55.637Z,15.37
2019-01-08T13:43:51.304Z,14.33
2019-01-08T13:48:46.962Z,17.20
2019-01-08T13:53:42.541Z,19.80
2019-01-08T13:58:38.350Z,15.47
2019-01-08T14:03:34.030Z,13.73
2019-01-08T14:08:29.681Z,14.53
2019-01-08T14:13:25.357Z,12.50
2019-01-08T14:18:21.009Z,12.40
2019-01-08T14:23:16.598Z,13.40
2019-01-08T14:28:12.220Z,13.30
2019-01-08T14:33:07.813Z,9.17
2019-01-08T14:38:03.457Z,8.87
2019-01-08T14:42:59.173Z,7.90
2019-01-08T14:47:54.845Z,10.70
2019-01-08T14:52:50.440Z,8.87
2019-01-08T14:57:46.105Z,13.53
2019-01-08T15:02:49.482Z,13.60
2019-01-08T15:07:39.001Z,14.67
2019-01-08T15:12:34.593Z,15.67
2019-01-08T15:17:30.253Z,16.57
2019-01-08T15:22:25.896Z,16.77
2019-01-08T15:27:21.577Z,16.97
2019-01-08T15:32:17.193Z,18.97
2019-01-08T15:37:12.939Z,16.43
2019-01-08T15:42:08.526Z,20.57
2019-01-08T15:47:04.310Z,12.67
2019-01-08T15:52:00.869Z,15.50
2019-01-08T15:56:56.593Z,18.50
2019-01-08T16:01:52.200Z,19.07
2019-01-08T16:06:47.926Z,18.93
2019-01-08T16:11:43.627Z,19.70
2019-01-08T16:16:39.285Z,21.07
2019-01-08T16:21:34.940Z,20.30
2019-01-08T16:26:30.469Z,18.80
2019-01-08T16:31:26.169Z,25.63
2019-01-08T16:36:22.092Z,22.43
2019-01-08T16:41:17.729Z,23.90
2019-01-08T16:46:13.407Z,26.50
2019-01-08T16:51:09.105Z,45.47
2019-01-08T16:56:04.791Z,35.20
2019-01-08T17:01:03.696Z,30.33
2019-01-08T17:06:00.026Z,28.43
2019-01-08T17:10:55.785Z,25.93
2019-01-08T17:15:51.539Z,24.30
2019-01-08T17:20:47.210Z,24.43
2019-01-08T17:25:47.954Z,24.73
2019-01-08T17:30:41.453Z,30.77
2019-01-08T17:35:37.171Z,26.90
2019-01-08T17:40:32.898Z,29.00
2019-01-08T17:45:29.143Z,29.37
2019-01-08T17:50:24.843Z,43.27
2019-01-08T17:55:20.537Z,28.17
2019-01-08T18:00:16.222Z,64.73
2019-01-08T18:05:11.986Z,28.50
2019-01-08T18:10:08.998Z,30.37
2019-01-08T18:15:04.981Z,28.03
2019-01-08T18:20:00.838Z,28.33
2019-01-08T18:24:56.588Z,27.13
2019-01-08T18:29:52.302Z,31.57
2019-01-08T18:34:48.051Z,96.70
2019-01-08T18:39:44.204Z,38.13
2019-01-08T18:44:39.954Z,25.63
2019-01-08T18:49:35.770Z,28.63
2019-01-08T18:54:31.553Z,29.33
2019-01-08T18:59:27.270Z,28.97
2019-01-08T19:04:23.045Z,28.80
2019-01-08T19:10:00.842Z,28.90
2019-01-08T19:14:56.546Z,29.60
2019-01-08T19:19:52.710Z,50.10
2019-01-08T19:24:48.495Z,48.43
2019-01-08T19:29:44.276Z,30.57
2019-01-08T19:34:39.967Z,30.57
2019-01-08T19:39:35.702Z,32.33
2019-01-08T19:44:31.414Z,32.00
2019-01-08T19:49:27.105Z,31.93
2019-01-08T19:54:22.887Z,37.53
2019-01-08T19:59:19.632Z,30.37
2019-01-08T20:04:17.982Z,30.90
2019-01-08T20:09:12.824Z,31.00
2019-01-08T20:14:09.546Z,34.47
2019-01-08T20:19:05.268Z,30.10
2019-01-08T20:24:06.503Z,28.27
2019-01-08T20:28:59.564Z,32.27
2019-01-08T20:33:55.292Z,28.23
2019-01-08T20:38:51.420Z,27.67
2019-01-08T20:43:47.153Z,30.07
2019-01-08T20:48:42.870Z,25.10
2019-01-08T20:53:38.904Z,15.50
2019-01-08T20:58:34.783Z,10.50
2019-01-08T21:03:30.542Z,5.93
2019-01-08T21:08:26.245Z,5.10
2019-01-08T21:13:24.970Z,4.00
2019-01-08T21:18:20.724Z,7.33
2019-01-08T21:23:16.410Z,6.03
